sensor_id;sensor_type;location;lat;lon;timestamp;temperature;humidity
9662;DHT22;24982;52.344;12.990;2022-10-16T00:02:52;15.00;99.90
9662;DHT22;24982;52.344;12.990;2022-10-16T00:05:59;15.00;99.90
9662;DHT22;24982;52.344;12.990;2022-10-16T00:09:01;15.00;99.90
9662;DHT22;24982;52.344;12.990;2022-10-16T00:12:05;15.00;99.90
9662;DHT22;24982;52.344;12.990;2022-10-16T00:15:08;15.00;99.90
9662;DHT22;24982;52.344;12.990;2022-10-16T00:18:10;15.00;99.90
9662;DHT22;24982;52.344;12.990;2022-10-16T00:21:16;15.10;99.90
9662;DHT22;24982;52.344;12.990;2022-10-16T00:24:19;15.00;99.90
9662;DHT22;24982;52.344;12.990;2022-10-16T00:27:22;15.10;99.90
9662;DHT22;24982;52.344;12.990;2022-10-16T00:30:24;15.10;99.90
9662;DHT22;24982;52.344;12.990;2022-10-16T00:33:28;15.10;99.90
9662;DHT22;24982;52.344;12.990;2022-10-16T00:36:30;15.20;99.90
9662;DHT22;24982;52.344;12.990;2022-10-16T00:39:32;15.20;99.90
9662;DHT22;24982;52.344;12.990;2022-10-16T00:42:36;15.20;99.90
9662;DHT22;24982;52.344;12.990;2022-10-16T00:45:38;15.20;99.90
9662;DHT22;24982;52.344;12.990;2022-10-16T00:48:40;15.20;99.90
9662;DHT22;24982;52.344;12.990;2022-10-16T00:51:44;15.10;99.90
9662;DHT22;24982;52.344;12.990;2022-10-16T00:54:47;15.10;99.90
9662;DHT22;24982;52.344;12.990;2022-10-16T00:57:52;15.10;99.90
9662;DHT22;24982;52.344;12.990;2022-10-16T01:00:54;15.10;99.90
9662;DHT22;24982;52.344;12.990;2022-10-16T01:03:56;15.10;99.90
9662;DHT22;24982;52.344;12.990;2022-10-16T01:07:04;15.00;99.90
9662;DHT22;24982;52.344;12.990;2022-10-16T01:10:16;15.00;99.90
9662;DHT22;24982;52.344;12.990;2022-10-16T01:13:25;15.00;99.90
9662;DHT22;24982;52.344;12.990;2022-10-16T01:16:34;15.00;99.90
9662;DHT22;24982;52.344;12.990;2022-10-16T01:19:54;15.00;99.90
9662;DHT22;24982;52.344;12.990;2022-10-16T01:23:07;14.90;99.90
9662;DHT22;24982;52.344;12.990;2022-10-16T01:26:24;14.90;99.90
9662;DHT22;24982;52.344;12.990;2022-10-16T01:29:38;14.90;99.90
9662;DHT22;24982;52.344;12.990;2022-10-16T01:32:44;14.90;99.90
9662;DHT22;24982;52.344;12.990;2022-10-16T01:35:52;14.90;99.90
9662;DHT22;24982;52.344;12.990;2022-10-16T01:38:57;14.90;99.90
9662;DHT22;24982;52.344;12.990;2022-10-16T01:42:05;14.90;99.90
9662;DHT22;24982;52.344;12.990;2022-10-16T01:45:12;14.90;99.90
9662;DHT22;24982;52.344;12.990;2022-10-16T01:48:17;14.90;99.90
9662;DHT22;24982;52.344;12.990;2022-10-16T01:51:21;15.00;99.90
9662;DHT22;24982;52.344;12.990;2022-10-16T01:54:27;15.00;99.90
9662;DHT22;24982;52.344;12.990;2022-10-16T01:57:31;15.00;99.90
9662;DHT22;24982;52.344;12.990;2022-10-16T02:00:37;15.00;99.90
9662;DHT22;24982;52.344;12.990;2022-10-16T02:03:42;15.00;99.90
9662;DHT22;24982;52.344;12.990;2022-10-16T02:06:44;15.00;99.90
9662;DHT22;24982;52.344;12.990;2022-10-16T02:09:46;14.90;99.90
9662;DHT22;24982;52.344;12.990;2022-10-16T02:12:53;15.00;99.90
9662;DHT22;24982;52.344;12.990;2022-10-16T02:15:58;15.00;99.90
9662;DHT22;24982;52.344;12.990;2022-10-16T02:19:00;15.00;99.90
9662;DHT22;24982;52.344;12.990;2022-10-16T02:22:06;15.00;99.90
9662;DHT22;24982;52.344;12.990;2022-10-16T02:25:10;15.00;99.90
9662;DHT22;24982;52.344;12.990;2022-10-16T02:28:17;15.00;99.90
9662;DHT22;24982;52.344;12.990;2022-10-16T02:31:26;15.00;99.90
9662;DHT22;24982;52.344;12.990;2022-10-16T02:34:31;15.00;99.90
9662;DHT22;24982;52.344;12.990;2022-10-16T02:37:34;15.00;99.90
9662;DHT22;24982;52.344;12.990;2022-10-16T02:40:36;15.10;99.90
9662;DHT22;24982;52.344;12.990;2022-10-16T02:43:38;15.10;99.90
9662;DHT22;24982;52.344;12.990;2022-10-16T02:46:42;15.10;99.90
9662;DHT22;24982;52.344;12.990;2022-10-16T02:49:43;15.10;99.90
9662;DHT22;24982;52.344;12.990;2022-10-16T02:52:46;15.10;99.90
9662;DHT22;24982;52.344;12.990;2022-10-16T02:55:48;15.10;99.90
9662;DHT22;24982;52.344;12.990;2022-10-16T02:58:50;15.10;99.90
9662;DHT22;24982;52.344;12.990;2022-10-16T03:01:53;15.10;99.90
9662;DHT22;24982;52.344;12.990;2022-10-16T03:04:55;15.10;99.90
9662;DHT22;24982;52.344;12.990;2022-10-16T03:07:57;15.10;99.90
9662;DHT22;24982;52.344;12.990;2022-10-16T03:11:00;15.00;99.90
9662;DHT22;24982;52.344;12.990;2022-10-16T03:14:03;15.00;99.90
9662;DHT22;24982;52.344;12.990;2022-10-16T03:17:06;15.00;99.90
9662;DHT22;24982;52.344;12.990;2022-10-16T03:20:09;15.00;99.90
9662;DHT22;24982;52.344;12.990;2022-10-16T03:23:11;14.90;99.90
9662;DHT22;24982;52.344;12.990;2022-10-16T03:26:13;14.90;99.90
9662;DHT22;24982;52.344;12.990;2022-10-16T03:29:16;14.90;99.90
9662;DHT22;24982;52.344;12.990;2022-10-16T03:32:19;14.90;99.90
9662;DHT22;24982;52.344;12.990;2022-10-16T03:35:22;14.80;99.90
9662;DHT22;24982;52.344;12.990;2022-10-16T03:38:24;14.80;99.90
9662;DHT22;24982;52.344;12.990;2022-10-16T03:41:26;14.80;99.90
9662;DHT22;24982;52.344;12.990;2022-10-16T03:44:28;14.80;99.90
9662;DHT22;24982;52.344;12.990;2022-10-16T03:47:32;14.70;99.90
9662;DHT22;24982;52.344;12.990;2022-10-16T03:50:34;14.70;99.90
9662;DHT22;24982;52.344;12.990;2022-10-16T03:53:36;14.60;99.90
9662;DHT22;24982;52.344;12.990;2022-10-16T03:56:38;14.60;99.90
9662;DHT22;24982;52.344;12.990;2022-10-16T03:59:40;14.60;99.90
9662;DHT22;24982;52.344;12.990;2022-10-16T04:02:43;14.60;99.90
9662;DHT22;24982;52.344;12.990;2022-10-16T04:05:45;14.60;99.90
9662;DHT22;24982;52.344;12.990;2022-10-16T04:08:48;14.60;99.90
9662;DHT22;24982;52.344;12.990;2022-10-16T04:11:50;14.70;99.90
9662;DHT22;24982;52.344;12.990;2022-10-16T04:14:52;14.60;99.90
9662;DHT22;24982;52.344;12.990;2022-10-16T04:17:56;14.60;99.90
9662;DHT22;24982;52.344;12.990;2022-10-16T04:21:02;14.60;99.90
9662;DHT22;24982;52.344;12.990;2022-10-16T04:24:04;14.60;99.90
9662;DHT22;24982;52.344;12.990;2022-10-16T04:27:06;14.60;99.90
9662;DHT22;24982;52.344;12.990;2022-10-16T04:30:09;14.60;99.90
9662;DHT22;24982;52.344;12.990;2022-10-16T04:33:12;14.60;99.90
9662;DHT22;24982;52.344;12.990;2022-10-16T04:36:14;14.60;99.90
9662;DHT22;24982;52.344;12.990;2022-10-16T04:39:16;14.60;99.90
9662;DHT22;24982;52.344;12.990;2022-10-16T04:42:18;14.50;99.90
9662;DHT22;24982;52.344;12.990;2022-10-16T04:45:20;14.50;99.90
9662;DHT22;24982;52.344;12.990;2022-10-16T04:48:24;14.50;99.90
9662;DHT22;24982;52.344;12.990;2022-10-16T04:51:26;14.50;99.90
9662;DHT22;24982;52.344;12.990;2022-10-16T04:54:28;14.50;99.90
9662;DHT22;24982;52.344;12.990;2022-10-16T04:57:31;14.40;99.90
9662;DHT22;24982;52.344;12.990;2022-10-16T05:00:34;14.30;99.90
9662;DHT22;24982;52.344;12.990;2022-10-16T05:03:38;14.30;99.90
9662;DHT22;24982;52.344;12.990;2022-10-16T05:06:40;14.20;99.90
9662;DHT22;24982;52.344;12.990;2022-10-16T05:09:42;14.30;99.90
9662;DHT22;24982;52.344;12.990;2022-10-16T05:12:44;14.30;99.90
9662;DHT22;24982;52.344;12.990;2022-10-16T05:15:47;14.30;99.90
9662;DHT22;24982;52.344;12.990;2022-10-16T05:18:53;14.30;99.90
9662;DHT22;24982;52.344;12.990;2022-10-16T05:21:55;14.30;99.90
9662;DHT22;24982;52.344;12.990;2022-10-16T05:24:57;14.30;99.90
9662;DHT22;24982;52.344;12.990;2022-10-16T05:27:59;14.30;99.90
9662;DHT22;24982;52.344;12.990;2022-10-16T05:31:04;14.30;99.90
9662;DHT22;24982;52.344;12.990;2022-10-16T05:34:08;14.30;99.90
9662;DHT22;24982;52.344;12.990;2022-10-16T05:37:11;14.30;99.90
9662;DHT22;24982;52.344;12.990;2022-10-16T05:40:13;14.30;99.90
9662;DHT22;24982;52.344;12.990;2022-10-16T05:43:15;14.30;99.90
9662;DHT22;24982;52.344;12.990;2022-10-16T05:46:17;14.30;99.90
9662;DHT22;24982;52.344;12.990;2022-10-16T05:49:21;14.30;99.90
9662;DHT22;24982;52.344;12.990;2022-10-16T05:52:23;14.30;99.90
9662;DHT22;24982;52.344;12.990;2022-10-16T05:55:25;14.30;99.90
9662;DHT22;24982;52.344;12.990;2022-10-16T05:58:29;14.30;99.90
9662;DHT22;24982;52.344;12.990;2022-10-16T06:01:32;14.30;99.90
9662;DHT22;24982;52.344;12.990;2022-10-16T06:04:35;14.40;99.90
9662;DHT22;24982;52.344;12.990;2022-10-16T06:07:37;14.40;99.90
9662;DHT22;24982;52.344;12.990;2022-10-16T06:10:39;14.40;99.90
9662;DHT22;24982;52.344;12.990;2022-10-16T06:13:41;14.50;99.90
9662;DHT22;24982;52.344;12.990;2022-10-16T06:16:43;14.50;99.90
9662;DHT22;24982;52.344;12.990;2022-10-16T06:19:47;14.50;99.90
9662;DHT22;24982;52.344;12.990;2022-10-16T06:22:49;14.50;99.90
9662;DHT22;24982;52.344;12.990;2022-10-16T06:25:51;14.50;99.90
9662;DHT22;24982;52.344;12.990;2022-10-16T06:28:54;14.50;99.90
9662;DHT22;24982;52.344;12.990;2022-10-16T06:31:57;14.60;99.90
9662;DHT22;24982;52.344;12.990;2022-10-16T06:35:00;14.60;99.90
9662;DHT22;24982;52.344;12.990;2022-10-16T06:38:02;14.70;99.90
9662;DHT22;24982;52.344;12.990;2022-10-16T06:41:05;14.70;99.90
9662;DHT22;24982;52.344;12.990;2022-10-16T06:44:08;14.80;99.90
9662;DHT22;24982;52.344;12.990;2022-10-16T06:47:10;14.80;99.90
9662;DHT22;24982;52.344;12.990;2022-10-16T06:50:13;14.80;99.90
9662;DHT22;24982;52.344;12.990;2022-10-16T06:53:15;14.90;99.90
9662;DHT22;24982;52.344;12.990;2022-10-16T06:56:19;14.90;99.90
9662;DHT22;24982;52.344;12.990;2022-10-16T06:59:22;15.00;99.90
9662;DHT22;24982;52.344;12.990;2022-10-16T07:02:24;15.00;99.90
9662;DHT22;24982;52.344;12.990;2022-10-16T07:05:27;15.10;99.90
9662;DHT22;24982;52.344;12.990;2022-10-16T07:08:31;15.20;99.90
9662;DHT22;24982;52.344;12.990;2022-10-16T07:11:34;15.20;99.90
9662;DHT22;24982;52.344;12.990;2022-10-16T07:14:36;15.30;99.90
9662;DHT22;24982;52.344;12.990;2022-10-16T07:17:38;15.30;99.90
9662;DHT22;24982;52.344;12.990;2022-10-16T07:20:41;15.40;99.90
9662;DHT22;24982;52.344;12.990;2022-10-16T07:23:43;15.40;99.90
9662;DHT22;24982;52.344;12.990;2022-10-16T07:26:46;15.50;99.90
9662;DHT22;24982;52.344;12.990;2022-10-16T07:29:48;15.50;99.90
9662;DHT22;24982;52.344;12.990;2022-10-16T07:32:50;15.60;99.90
9662;DHT22;24982;52.344;12.990;2022-10-16T07:35:54;15.60;99.90
9662;DHT22;24982;52.344;12.990;2022-10-16T07:38:56;15.70;99.90
9662;DHT22;24982;52.344;12.990;2022-10-16T07:41:58;15.70;99.90
9662;DHT22;24982;52.344;12.990;2022-10-16T07:45:00;15.70;99.90
9662;DHT22;24982;52.344;12.990;2022-10-16T07:48:02;15.80;99.90
9662;DHT22;24982;52.344;12.990;2022-10-16T07:51:07;15.80;99.90
9662;DHT22;24982;52.344;12.990;2022-10-16T07:54:09;15.80;99.90
9662;DHT22;24982;52.344;12.990;2022-10-16T07:57:11;15.80;99.90
9662;DHT22;24982;52.344;12.990;2022-10-16T08:00:19;15.90;99.90
9662;DHT22;24982;52.344;12.990;2022-10-16T08:03:21;15.90;99.90
9662;DHT22;24982;52.344;12.990;2022-10-16T08:06:24;16.00;99.90
9662;DHT22;24982;52.344;12.990;2022-10-16T08:09:26;16.00;99.90
9662;DHT22;24982;52.344;12.990;2022-10-16T08:12:28;16.10;99.90
9662;DHT22;24982;52.344;12.990;2022-10-16T08:15:30;16.10;99.90
9662;DHT22;24982;52.344;12.990;2022-10-16T08:18:32;16.20;99.90
9662;DHT22;24982;52.344;12.990;2022-10-16T08:21:35;16.20;99.90
9662;DHT22;24982;52.344;12.990;2022-10-16T08:27:40;16.20;99.90
9662;DHT22;24982;52.344;12.990;2022-10-16T08:30:42;16.40;99.90
9662;DHT22;24982;52.344;12.990;2022-10-16T08:33:45;16.40;99.90
9662;DHT22;24982;52.344;12.990;2022-10-16T08:36:49;16.40;99.90
9662;DHT22;24982;52.344;12.990;2022-10-16T08:39:51;16.50;99.90
9662;DHT22;24982;52.344;12.990;2022-10-16T08:43:18;16.50;99.90
9662;DHT22;24982;52.344;12.990;2022-10-16T08:46:37;16.50;99.90
9662;DHT22;24982;52.344;12.990;2022-10-16T08:49:42;16.60;99.90
9662;DHT22;24982;52.344;12.990;2022-10-16T08:52:48;16.70;99.90
9662;DHT22;24982;52.344;12.990;2022-10-16T08:58:55;16.80;99.90
9662;DHT22;24982;52.344;12.990;2022-10-16T09:01:58;17.10;99.90
9662;DHT22;24982;52.344;12.990;2022-10-16T09:05:21;17.10;99.90
9662;DHT22;24982;52.344;12.990;2022-10-16T09:08:30;17.20;99.90
9662;DHT22;24982;52.344;12.990;2022-10-16T09:14:52;17.30;99.90
9662;DHT22;24982;52.344;12.990;2022-10-16T09:18:04;17.50;99.90
9662;DHT22;24982;52.344;12.990;2022-10-16T09:24:16;17.70;99.90
9662;DHT22;24982;52.344;12.990;2022-10-16T09:27:19;18.30;99.90
9662;DHT22;24982;52.344;12.990;2022-10-16T09:30:21;18.50;99.90
9662;DHT22;24982;52.344;12.990;2022-10-16T09:33:25;18.60;99.90
9662;DHT22;24982;52.344;12.990;2022-10-16T09:36:35;18.70;99.90
9662;DHT22;24982;52.344;12.990;2022-10-16T09:39:46;19.00;99.90
9662;DHT22;24982;52.344;12.990;2022-10-16T09:42:49;19.10;99.90
9662;DHT22;24982;52.344;12.990;2022-10-16T09:45:55;19.00;99.90
9662;DHT22;24982;52.344;12.990;2022-10-16T09:48:59;18.90;99.90
9662;DHT22;24982;52.344;12.990;2022-10-16T09:52:06;18.80;99.90
9662;DHT22;24982;52.344;12.990;2022-10-16T09:55:15;18.80;99.90
9662;DHT22;24982;52.344;12.990;2022-10-16T09:58:18;18.80;99.90
9662;DHT22;24982;52.344;12.990;2022-10-16T10:01:26;18.90;99.90
9662;DHT22;24982;52.344;12.990;2022-10-16T10:04:38;19.10;99.90
9662;DHT22;24982;52.344;12.990;2022-10-16T10:07:43;19.30;99.90
9662;DHT22;24982;52.344;12.990;2022-10-16T10:10:48;19.40;99.90
9662;DHT22;24982;52.344;12.990;2022-10-16T10:13:50;19.60;99.90
9662;DHT22;24982;52.344;12.990;2022-10-16T10:17:02;19.80;99.90
9662;DHT22;24982;52.344;12.990;2022-10-16T10:20:21;19.80;99.90
9662;DHT22;24982;52.344;12.990;2022-10-16T10:23:25;19.80;99.90
9662;DHT22;24982;52.344;12.990;2022-10-16T10:26:32;19.80;99.90
9662;DHT22;24982;52.344;12.990;2022-10-16T10:29:47;19.70;99.90
9662;DHT22;24982;52.344;12.990;2022-10-16T10:33:05;19.80;99.90
9662;DHT22;24982;52.344;12.990;2022-10-16T10:36:22;19.80;99.90
9662;DHT22;24982;52.344;12.990;2022-10-16T10:39:30;20.00;99.90
9662;DHT22;24982;52.344;12.990;2022-10-16T10:42:41;20.30;99.90
9662;DHT22;24982;52.344;12.990;2022-10-16T10:45:47;20.70;99.90
9662;DHT22;24982;52.344;12.990;2022-10-16T10:49:02;21.20;99.90
9662;DHT22;24982;52.344;12.990;2022-10-16T10:52:22;21.50;99.90
9662;DHT22;24982;52.344;12.990;2022-10-16T10:55:37;21.50;99.90
9662;DHT22;24982;52.344;12.990;2022-10-16T10:58:58;21.20;99.90
9662;DHT22;24982;52.344;12.990;2022-10-16T11:02:09;20.90;99.90
9662;DHT22;24982;52.344;12.990;2022-10-16T11:05:29;21.60;99.90
9662;DHT22;24982;52.344;12.990;2022-10-16T11:08:35;22.60;99.90
9662;DHT22;24982;52.344;12.990;2022-10-16T11:11:43;23.10;99.90
9662;DHT22;24982;52.344;12.990;2022-10-16T11:14:50;23.40;99.90
9662;DHT22;24982;52.344;12.990;2022-10-16T11:17:59;23.10;99.90
9662;DHT22;24982;52.344;12.990;2022-10-16T11:21:07;22.50;99.90
9662;DHT22;24982;52.344;12.990;2022-10-16T11:24:16;22.10;99.90
9662;DHT22;24982;52.344;12.990;2022-10-16T11:27:27;21.60;99.90
9662;DHT22;24982;52.344;12.990;2022-10-16T11:30:43;21.50;99.90
9662;DHT22;24982;52.344;12.990;2022-10-16T11:33:49;21.50;99.90
9662;DHT22;24982;52.344;12.990;2022-10-16T11:36:56;21.70;99.90
9662;DHT22;24982;52.344;12.990;2022-10-16T11:40:05;22.20;99.90
9662;DHT22;24982;52.344;12.990;2022-10-16T11:43:22;23.00;99.90
9662;DHT22;24982;52.344;12.990;2022-10-16T11:46:30;23.40;99.90
9662;DHT22;24982;52.344;12.990;2022-10-16T11:49:33;23.30;99.90
9662;DHT22;24982;52.344;12.990;2022-10-16T11:52:40;23.10;99.90
9662;DHT22;24982;52.344;12.990;2022-10-16T11:55:45;22.90;99.90
9662;DHT22;24982;52.344;12.990;2022-10-16T11:58:54;22.60;99.90
9662;DHT22;24982;52.344;12.990;2022-10-16T12:02:08;22.60;99.90
9662;DHT22;24982;52.344;12.990;2022-10-16T12:05:25;22.50;99.90
9662;DHT22;24982;52.344;12.990;2022-10-16T12:08:33;22.60;99.90
9662;DHT22;24982;52.344;12.990;2022-10-16T12:11:37;22.70;99.90
9662;DHT22;24982;52.344;12.990;2022-10-16T12:14:40;22.60;99.90
9662;DHT22;24982;52.344;12.990;2022-10-16T12:17:43;22.50;99.90
9662;DHT22;24982;52.344;12.990;2022-10-16T12:20:54;22.60;99.90
9662;DHT22;24982;52.344;12.990;2022-10-16T12:24:00;22.80;99.90
9662;DHT22;24982;52.344;12.990;2022-10-16T12:27:05;23.40;99.90
9662;DHT22;24982;52.344;12.990;2022-10-16T12:30:21;24.00;99.90
9662;DHT22;24982;52.344;12.990;2022-10-16T12:33:26;24.60;99.90
9662;DHT22;24982;52.344;12.990;2022-10-16T12:36:31;24.70;99.90
9662;DHT22;24982;52.344;12.990;2022-10-16T12:39:34;24.90;99.90
9662;DHT22;24982;52.344;12.990;2022-10-16T12:42:37;25.00;99.90
9662;DHT22;24982;52.344;12.990;2022-10-16T12:45:39;25.10;99.90
9662;DHT22;24982;52.344;12.990;2022-10-16T12:48:44;24.60;99.90
9662;DHT22;24982;52.344;12.990;2022-10-16T12:51:47;24.50;99.90
9662;DHT22;24982;52.344;12.990;2022-10-16T12:54:49;24.60;99.90
9662;DHT22;24982;52.344;12.990;2022-10-16T12:58:05;24.80;99.90
9662;DHT22;24982;52.344;12.990;2022-10-16T13:01:20;25.00;99.90
9662;DHT22;24982;52.344;12.990;2022-10-16T13:04:43;25.00;99.90
9662;DHT22;24982;52.344;12.990;2022-10-16T13:08:01;24.50;99.90
9662;DHT22;24982;52.344;12.990;2022-10-16T13:11:15;24.10;99.90
9662;DHT22;24982;52.344;12.990;2022-10-16T13:14:48;23.90;99.90
9662;DHT22;24982;52.344;12.990;2022-10-16T13:18:00;23.30;99.90
9662;DHT22;24982;52.344;12.990;2022-10-16T13:21:16;22.80;99.90
9662;DHT22;24982;52.344;12.990;2022-10-16T13:24:36;22.60;99.90
9662;DHT22;24982;52.344;12.990;2022-10-16T13:27:48;22.50;99.90
9662;DHT22;24982;52.344;12.990;2022-10-16T13:30:56;22.10;99.90
9662;DHT22;24982;52.344;12.990;2022-10-16T13:33:59;21.80;99.90
9662;DHT22;24982;52.344;12.990;2022-10-16T13:37:15;21.80;99.90
9662;DHT22;24982;52.344;12.990;2022-10-16T13:40:20;22.00;99.90
9662;DHT22;24982;52.344;12.990;2022-10-16T13:43:26;22.20;99.90
9662;DHT22;24982;52.344;12.990;2022-10-16T13:46:28;22.30;99.90
9662;DHT22;24982;52.344;12.990;2022-10-16T13:49:34;22.20;99.90
9662;DHT22;24982;52.344;12.990;2022-10-16T13:52:38;22.10;99.90
9662;DHT22;24982;52.344;12.990;2022-10-16T13:55:40;22.00;99.90
9662;DHT22;24982;52.344;12.990;2022-10-16T13:58:42;21.90;99.90
9662;DHT22;24982;52.344;12.990;2022-10-16T14:01:45;21.70;99.90
9662;DHT22;24982;52.344;12.990;2022-10-16T14:04:47;21.50;99.90
9662;DHT22;24982;52.344;12.990;2022-10-16T14:07:52;21.40;99.90
9662;DHT22;24982;52.344;12.990;2022-10-16T14:10:56;21.30;99.90
9662;DHT22;24982;52.344;12.990;2022-10-16T14:13:59;21.50;99.90
9662;DHT22;24982;52.344;12.990;2022-10-16T14:17:03;21.00;99.90
9662;DHT22;24982;52.344;12.990;2022-10-16T14:20:06;20.90;99.90
9662;DHT22;24982;52.344;12.990;2022-10-16T14:23:23;20.80;99.90
9662;DHT22;24982;52.344;12.990;2022-10-16T14:26:29;20.70;99.90
9662;DHT22;24982;52.344;12.990;2022-10-16T14:29:42;20.60;99.90
9662;DHT22;24982;52.344;12.990;2022-10-16T14:32:54;20.50;99.90
9662;DHT22;24982;52.344;12.990;2022-10-16T14:36:02;20.40;99.90
9662;DHT22;24982;52.344;12.990;2022-10-16T14:39:18;20.30;99.90
9662;DHT22;24982;52.344;12.990;2022-10-16T14:42:23;20.30;99.90
9662;DHT22;24982;52.344;12.990;2022-10-16T14:45:28;20.20;99.90
9662;DHT22;24982;52.344;12.990;2022-10-16T14:48:30;20.70;99.90
9662;DHT22;24982;52.344;12.990;2022-10-16T14:51:33;20.10;99.90
9662;DHT22;24982;52.344;12.990;2022-10-16T14:54:36;20.10;99.90
9662;DHT22;24982;52.344;12.990;2022-10-16T15:09:49;19.60;99.90
9662;DHT22;24982;52.344;12.990;2022-10-16T15:12:52;19.60;99.90
9662;DHT22;24982;52.344;12.990;2022-10-16T15:15:54;19.50;99.90
9662;DHT22;24982;52.344;12.990;2022-10-16T15:18:56;19.40;99.90
9662;DHT22;24982;52.344;12.990;2022-10-16T15:21:58;19.30;99.90
9662;DHT22;24982;52.344;12.990;2022-10-16T15:28:04;19.10;99.90
9662;DHT22;24982;52.344;12.990;2022-10-16T15:34:09;19.00;99.90
9662;DHT22;24982;52.344;12.990;2022-10-16T15:37:12;18.90;99.90
9662;DHT22;24982;52.344;12.990;2022-10-16T15:40:17;18.70;99.90
9662;DHT22;24982;52.344;12.990;2022-10-16T15:43:19;18.60;99.90
9662;DHT22;24982;52.344;12.990;2022-10-16T15:46:22;18.40;99.90
9662;DHT22;24982;52.344;12.990;2022-10-16T15:49:25;18.10;99.90
9662;DHT22;24982;52.344;12.990;2022-10-16T15:55:30;17.60;99.90
9662;DHT22;24982;52.344;12.990;2022-10-16T15:58:33;17.30;99.90
9662;DHT22;24982;52.344;12.990;2022-10-16T16:01:35;17.10;99.90
9662;DHT22;24982;52.344;12.990;2022-10-16T16:04:37;16.90;99.90
9662;DHT22;24982;52.344;12.990;2022-10-16T16:07:39;16.60;99.90
9662;DHT22;24982;52.344;12.990;2022-10-16T16:10:43;16.50;99.90
9662;DHT22;24982;52.344;12.990;2022-10-16T16:13:45;16.30;99.90
9662;DHT22;24982;52.344;12.990;2022-10-16T16:19:50;16.00;99.90
9662;DHT22;24982;52.344;12.990;2022-10-16T16:22:52;15.80;99.90
9662;DHT22;24982;52.344;12.990;2022-10-16T16:26:07;15.80;99.90
9662;DHT22;24982;52.344;12.990;2022-10-16T16:29:12;15.70;99.90
9662;DHT22;24982;52.344;12.990;2022-10-16T16:32:14;15.50;99.90
9662;DHT22;24982;52.344;12.990;2022-10-16T16:35:16;15.50;99.90
9662;DHT22;24982;52.344;12.990;2022-10-16T16:38:18;15.30;99.90
9662;DHT22;24982;52.344;12.990;2022-10-16T16:41:23;15.30;99.90
9662;DHT22;24982;52.344;12.990;2022-10-16T16:44:26;15.50;99.90
9662;DHT22;24982;52.344;12.990;2022-10-16T16:47:28;15.20;99.90
9662;DHT22;24982;52.344;12.990;2022-10-16T16:50:30;15.10;99.90
9662;DHT22;24982;52.344;12.990;2022-10-16T16:53:36;15.10;99.90
9662;DHT22;24982;52.344;12.990;2022-10-16T16:56:39;15.00;99.90
9662;DHT22;24982;52.344;12.990;2022-10-16T16:59:43;15.00;99.90
9662;DHT22;24982;52.344;12.990;2022-10-16T17:02:48;14.90;99.90
9662;DHT22;24982;52.344;12.990;2022-10-16T17:05:55;14.90;99.90
9662;DHT22;24982;52.344;12.990;2022-10-16T17:08:59;14.90;99.90
9662;DHT22;24982;52.344;12.990;2022-10-16T17:12:04;14.80;99.90
9662;DHT22;24982;52.344;12.990;2022-10-16T17:15:07;14.70;99.90
9662;DHT22;24982;52.344;12.990;2022-10-16T17:18:09;14.60;99.90
9662;DHT22;24982;52.344;12.990;2022-10-16T17:21:12;14.60;99.90
9662;DHT22;24982;52.344;12.990;2022-10-16T17:24:14;14.50;99.90
9662;DHT22;24982;52.344;12.990;2022-10-16T17:27:18;14.50;99.90
9662;DHT22;24982;52.344;12.990;2022-10-16T17:30:20;14.40;99.90
9662;DHT22;24982;52.344;12.990;2022-10-16T17:33:21;14.40;99.90
9662;DHT22;24982;52.344;12.990;2022-10-16T17:36:23;14.50;99.90
9662;DHT22;24982;52.344;12.990;2022-10-16T17:39:26;14.50;99.90
9662;DHT22;24982;52.344;12.990;2022-10-16T17:42:30;14.60;99.90
9662;DHT22;24982;52.344;12.990;2022-10-16T17:45:36;14.50;99.90
9662;DHT22;24982;52.344;12.990;2022-10-16T17:48:41;14.40;99.90
9662;DHT22;24982;52.344;12.990;2022-10-16T17:51:43;14.40;99.90
9662;DHT22;24982;52.344;12.990;2022-10-16T17:54:45;14.30;99.90
9662;DHT22;24982;52.344;12.990;2022-10-16T17:57:53;14.30;99.90
9662;DHT22;24982;52.344;12.990;2022-10-16T18:00:55;14.10;99.90
9662;DHT22;24982;52.344;12.990;2022-10-16T18:03:59;14.10;99.90
9662;DHT22;24982;52.344;12.990;2022-10-16T18:07:01;14.10;99.90
9662;DHT22;24982;52.344;12.990;2022-10-16T18:10:05;14.10;99.90
9662;DHT22;24982;52.344;12.990;2022-10-16T18:13:12;14.00;99.90
9662;DHT22;24982;52.344;12.990;2022-10-16T18:16:14;14.00;99.90
9662;DHT22;24982;52.344;12.990;2022-10-16T18:19:17;14.00;99.90
9662;DHT22;24982;52.344;12.990;2022-10-16T18:22:19;14.00;99.90
9662;DHT22;24982;52.344;12.990;2022-10-16T18:25:21;14.10;99.90
9662;DHT22;24982;52.344;12.990;2022-10-16T18:28:25;14.10;99.90
9662;DHT22;24982;52.344;12.990;2022-10-16T18:31:27;14.10;99.90
9662;DHT22;24982;52.344;12.990;2022-10-16T18:34:29;14.10;99.90
9662;DHT22;24982;52.344;12.990;2022-10-16T18:37:34;14.00;99.90
9662;DHT22;24982;52.344;12.990;2022-10-16T18:40:37;14.00;99.90
9662;DHT22;24982;52.344;12.990;2022-10-16T18:43:40;13.90;99.90
9662;DHT22;24982;52.344;12.990;2022-10-16T18:46:42;13.80;99.90
9662;DHT22;24982;52.344;12.990;2022-10-16T18:49:47;13.80;99.90
9662;DHT22;24982;52.344;12.990;2022-10-16T18:52:49;13.70;99.90
9662;DHT22;24982;52.344;12.990;2022-10-16T18:55:52;13.60;99.90
9662;DHT22;24982;52.344;12.990;2022-10-16T18:58:57;13.60;99.90
9662;DHT22;24982;52.344;12.990;2022-10-16T19:01:59;13.60;99.90
9662;DHT22;24982;52.344;12.990;2022-10-16T19:05:01;13.50;99.90
9662;DHT22;24982;52.344;12.990;2022-10-16T19:08:04;13.50;99.90
9662;DHT22;24982;52.344;12.990;2022-10-16T19:11:07;13.50;99.90
9662;DHT22;24982;52.344;12.990;2022-10-16T19:14:12;13.50;99.90
9662;DHT22;24982;52.344;12.990;2022-10-16T19:17:14;13.60;99.90
9662;DHT22;24982;52.344;12.990;2022-10-16T19:20:16;13.50;99.90
9662;DHT22;24982;52.344;12.990;2022-10-16T19:23:18;13.60;99.90
9662;DHT22;24982;52.344;12.990;2022-10-16T19:26:21;13.60;99.90
9662;DHT22;24982;52.344;12.990;2022-10-16T19:29:24;13.60;99.90
9662;DHT22;24982;52.344;12.990;2022-10-16T19:32:26;13.60;99.90
9662;DHT22;24982;52.344;12.990;2022-10-16T19:35:28;13.60;99.90
9662;DHT22;24982;52.344;12.990;2022-10-16T19:38:30;13.60;99.90
9662;DHT22;24982;52.344;12.990;2022-10-16T19:41:33;13.60;99.90
9662;DHT22;24982;52.344;12.990;2022-10-16T19:44:38;13.60;99.90
9662;DHT22;24982;52.344;12.990;2022-10-16T19:47:40;13.60;99.90
9662;DHT22;24982;52.344;12.990;2022-10-16T19:50:44;13.50;99.90
9662;DHT22;24982;52.344;12.990;2022-10-16T19:53:51;13.50;99.90
9662;DHT22;24982;52.344;12.990;2022-10-16T19:56:53;13.50;99.90
9662;DHT22;24982;52.344;12.990;2022-10-16T19:59:59;13.50;99.90
9662;DHT22;24982;52.344;12.990;2022-10-16T20:03:01;13.40;99.90
9662;DHT22;24982;52.344;12.990;2022-10-16T20:06:03;13.50;99.90